createdAt,value
2018-03-14T00:02:50.543Z,85.29
2018-03-14T00:05:53.955Z,86.52
2018-03-14T00:08:57.244Z,86.16
2018-03-14T00:12:00.596Z,85.38
2018-03-14T00:15:03.854Z,85.42
2018-03-14T00:18:07.144Z,84.21
2018-03-14T00:21:10.433Z,86.00
2018-03-14T00:24:13.764Z,85.50
2018-03-14T00:27:17.063Z,84.76
2018-03-14T00:30:20.314Z,85.54
2018-03-14T00:33:23.615Z,84.73
2018-03-14T00:36:26.924Z,85.55
2018-03-14T00:39:30.205Z,84.78
2018-03-14T00:42:33.463Z,85.83
2018-03-14T00:45:36.710Z,85.35
2018-03-14T00:48:39.999Z,86.07
2018-03-14T00:51:43.296Z,86.45
2018-03-14T00:54:46.612Z,86.44
2018-03-14T00:57:49.896Z,85.41
2018-03-14T01:00:53.205Z,85.44
2018-03-14T01:03:56.494Z,85.18
2018-03-14T01:06:59.801Z,85.14
2018-03-14T01:10:03.123Z,85.81
2018-03-14T01:13:06.400Z,85.49
2018-03-14T01:16:09.693Z,85.96
2018-03-14T01:19:12.980Z,85.59
2018-03-14T01:22:16.378Z,85.86
2018-03-14T01:25:19.679Z,86.25
2018-03-14T01:28:22.990Z,86.36
2018-03-14T01:31:26.271Z,85.81
2018-03-14T01:34:29.618Z,86.31
2018-03-14T01:37:32.828Z,86.63
2018-03-14T01:40:36.031Z,87.35
2018-03-14T01:43:39.188Z,87.32
2018-03-14T01:46:42.494Z,87.25
2018-03-14T01:49:45.742Z,86.93
2018-03-14T01:52:49.491Z,86.74
2018-03-14T01:55:52.760Z,86.08
2018-03-14T01:58:56.007Z,86.55
2018-03-14T02:01:59.263Z,86.33
2018-03-14T02:05:02.903Z,86.09
2018-03-14T02:08:06.070Z,85.93
2018-03-14T02:11:09.345Z,85.56
2018-03-14T02:14:12.642Z,86.28
2018-03-14T02:17:15.946Z,85.77
2018-03-14T02:20:19.600Z,85.98
2018-03-14T02:23:22.840Z,85.46
2018-03-14T02:26:26.140Z,86.60
2018-03-14T02:29:29.430Z,86.58
2018-03-14T02:32:32.734Z,86.71
2018-03-14T02:35:36.039Z,86.90
2018-03-14T02:38:39.322Z,86.76
2018-03-14T02:41:42.663Z,86.54
2018-03-14T02:44:45.934Z,87.11
2018-03-14T02:47:49.220Z,86.53
2018-03-14T02:50:52.534Z,86.91
2018-03-14T02:53:55.819Z,87.12
2018-03-14T02:56:59.057Z,87.19
2018-03-14T03:00:02.349Z,86.61
2018-03-14T03:03:05.629Z,86.73
2018-03-14T03:06:08.846Z,86.59
2018-03-14T03:09:12.163Z,86.79
2018-03-14T03:12:15.413Z,86.44
2018-03-14T03:15:18.697Z,86.38
2018-03-14T03:18:22.051Z,86.46
2018-03-14T03:21:25.238Z,86.32
2018-03-14T03:24:28.423Z,86.43
2018-03-14T03:27:31.687Z,86.89
2018-03-14T03:30:35.001Z,86.45
2018-03-14T03:33:38.311Z,86.31
2018-03-14T03:36:41.583Z,85.76
2018-03-14T03:39:44.883Z,86.06
2018-03-14T03:42:48.258Z,85.67
2018-03-14T03:45:51.520Z,84.63
2018-03-14T03:48:54.775Z,84.15
2018-03-14T03:51:58.093Z,84.88
2018-03-14T03:55:01.373Z,83.57
2018-03-14T03:58:04.676Z,84.47
2018-03-14T04:01:07.905Z,84.01
2018-03-14T04:04:11.183Z,84.04
2018-03-14T04:07:14.491Z,83.56
2018-03-14T04:10:17.699Z,83.77
2018-03-14T04:13:21.070Z,82.86
2018-03-14T04:16:24.347Z,84.17
2018-03-14T04:19:27.711Z,83.91
2018-03-14T04:22:30.941Z,84.02
2018-03-14T04:25:34.298Z,84.71
2018-03-14T04:28:37.545Z,83.23
2018-03-14T04:31:41.799Z,82.70
2018-03-14T04:34:45.046Z,82.59
2018-03-14T04:37:48.375Z,82.06
2018-03-14T04:40:51.656Z,82.71
2018-03-14T04:43:55.186Z,83.19
2018-03-14T04:46:58.455Z,84.34
2018-03-14T04:50:01.695Z,84.02
2018-03-14T04:53:04.936Z,84.03
2018-03-14T04:56:08.239Z,84.14
2018-03-14T04:59:11.558Z,84.24
2018-03-14T05:02:14.842Z,83.73
2018-03-14T05:05:18.120Z,84.66
2018-03-14T05:08:21.436Z,84.62
2018-03-14T05:11:24.747Z,84.53
2018-03-14T05:14:27.979Z,84.75
2018-03-14T05:17:31.391Z,84.96
2018-03-14T05:20:34.717Z,85.54
2018-03-14T05:23:38.087Z,85.60
2018-03-14T05:26:41.450Z,84.67
2018-03-14T05:29:44.700Z,84.50
2018-03-14T05:32:47.953Z,84.89
2018-03-14T05:35:51.174Z,84.78
2018-03-14T05:38:54.539Z,85.13
2018-03-14T05:41:57.842Z,85.00
2018-03-14T05:45:01.121Z,84.79
2018-03-14T05:48:04.406Z,85.37
2018-03-14T05:51:07.643Z,85.43
2018-03-14T05:54:10.836Z,85.87
2018-03-14T05:57:14.115Z,86.17
2018-03-14T06:00:17.395Z,85.71
2018-03-14T06:03:20.772Z,85.96
2018-03-14T06:06:24.017Z,85.74
2018-03-14T06:09:27.288Z,86.00
2018-03-14T06:12:30.696Z,86.34
2018-03-14T06:15:34.031Z,86.49
2018-03-14T06:18:37.294Z,86.21
2018-03-14T06:21:40.578Z,86.09
2018-03-14T06:24:43.906Z,86.35
2018-03-14T06:27:47.097Z,86.00
2018-03-14T06:30:50.424Z,85.72
2018-03-14T06:33:53.683Z,85.92
2018-03-14T06:36:56.879Z,86.11
2018-03-14T06:40:00.335Z,85.91
2018-03-14T06:43:03.602Z,86.20
2018-03-14T06:46:06.824Z,86.40
2018-03-14T06:49:09.985Z,85.69
2018-03-14T06:52:13.273Z,85.73
2018-03-14T06:55:16.545Z,85.92
2018-03-14T06:58:28.667Z,86.09
2018-03-14T07:01:41.863Z,85.37
2018-03-14T07:04:53.979Z,85.48
2018-03-14T07:07:57.189Z,85.66
2018-03-14T07:11:00.375Z,85.42
2018-03-14T07:14:03.588Z,85.09
2018-03-14T07:17:06.759Z,84.84
2018-03-14T07:20:09.962Z,85.03
2018-03-14T07:23:13.189Z,85.12
2018-03-14T07:26:16.444Z,84.73
2018-03-14T07:29:19.747Z,84.79
2018-03-14T07:32:22.951Z,84.31
2018-03-14T07:35:26.172Z,84.38
2018-03-14T07:38:29.452Z,84.32
2018-03-14T07:41:32.785Z,84.13
2018-03-14T07:44:36.029Z,83.73
2018-03-14T07:47:39.197Z,83.58
2018-03-14T07:50:42.420Z,83.12
2018-03-14T07:53:45.635Z,82.46
2018-03-14T07:56:48.911Z,82.29
2018-03-14T07:59:52.111Z,81.81
2018-03-14T08:02:55.314Z,82.25
2018-03-14T08:05:58.561Z,82.77
2018-03-14T08:09:01.800Z,80.81
2018-03-14T08:12:04.998Z,81.54
2018-03-14T08:15:08.189Z,81.23
2018-03-14T08:18:11.690Z,79.14
2018-03-14T08:21:14.871Z,78.61
2018-03-14T08:24:18.060Z,77.87
2018-03-14T08:27:21.298Z,77.59
2018-03-14T08:30:24.487Z,77.81
2018-03-14T08:33:27.695Z,76.77
2018-03-14T08:36:30.873Z,77.72
2018-03-14T08:39:34.063Z,76.58
2018-03-14T08:42:37.257Z,77.32
2018-03-14T08:45:40.452Z,76.47
2018-03-14T08:48:43.664Z,76.23
2018-03-14T08:51:46.945Z,74.82
2018-03-14T08:54:50.242Z,75.39
2018-03-14T08:57:53.435Z,74.12
2018-03-14T09:00:56.614Z,72.92
2018-03-14T09:03:59.826Z,70.83
2018-03-14T09:07:03.042Z,68.64
2018-03-14T09:10:06.211Z,68.54
2018-03-14T09:13:09.380Z,68.94
2018-03-14T09:16:12.595Z,69.76
2018-03-14T09:19:15.791Z,68.32
2018-03-14T09:22:18.980Z,67.64
2018-03-14T09:25:22.197Z,67.81
2018-03-14T09:28:25.371Z,63.26
2018-03-14T09:31:28.570Z,63.64
2018-03-14T09:34:31.776Z,61.63
2018-03-14T09:37:35.032Z,60.59
2018-03-14T09:40:38.267Z,62.35
2018-03-14T09:43:41.454Z,63.28
2018-03-14T09:46:44.649Z,65.86
2018-03-14T09:49:47.906Z,61.39
2018-03-14T09:52:51.038Z,62.14
2018-03-14T09:55:54.250Z,59.24
2018-03-14T09:58:57.443Z,59.36
2018-03-14T10:02:00.649Z,59.04
2018-03-14T10:05:03.919Z,61.21
2018-03-14T10:08:07.111Z,59.43
2018-03-14T10:11:10.511Z,60.00
2018-03-14T10:14:13.906Z,57.72
2018-03-14T10:17:17.083Z,54.81
2018-03-14T10:20:20.323Z,53.97
2018-03-14T10:23:23.519Z,56.46
2018-03-14T10:26:26.708Z,58.45
2018-03-14T10:29:29.935Z,58.88
2018-03-14T10:32:33.117Z,58.14
2018-03-14T10:35:36.282Z,58.32
2018-03-14T10:38:39.496Z,56.80
2018-03-14T10:41:42.691Z,55.06
2018-03-14T10:44:45.892Z,55.80
2018-03-14T10:47:49.486Z,56.07
2018-03-14T10:50:52.674Z,55.26
2018-03-14T10:53:55.881Z,54.10
2018-03-14T10:56:59.080Z,52.61
2018-03-14T11:00:02.267Z,52.41
2018-03-14T11:03:09.649Z,51.66
2018-03-14T11:06:12.803Z,52.12
2018-03-14T11:09:15.917Z,49.93
2018-03-14T11:12:19.136Z,49.64
2018-03-14T11:15:22.313Z,50.92
2018-03-14T11:18:25.470Z,50.71
2018-03-14T11:21:29.299Z,55.49
2018-03-14T11:24:32.404Z,55.32
2018-03-14T11:27:35.532Z,55.85
2018-03-14T11:30:38.856Z,55.66
2018-03-14T11:33:42.015Z,54.89
2018-03-14T11:36:45.195Z,54.03
2018-03-14T11:39:48.310Z,55.51
2018-03-14T11:42:51.441Z,54.30
2018-03-14T11:45:54.682Z,53.68
2018-03-14T11:48:57.858Z,53.46
2018-03-14T11:52:01.063Z,53.45
2018-03-14T11:55:04.191Z,50.69
2018-03-14T11:58:07.382Z,49.68
2018-03-14T12:01:10.572Z,47.01
2018-03-14T12:04:13.690Z,48.04
2018-03-14T12:07:16.849Z,49.63
2018-03-14T12:10:19.997Z,48.92
2018-03-14T12:13:23.139Z,49.70
2018-03-14T12:16:26.306Z,50.71
2018-03-14T12:19:29.507Z,50.40
2018-03-14T12:22:32.770Z,50.78
2018-03-14T12:25:35.948Z,51.13
2018-03-14T12:28:39.086Z,48.73
2018-03-14T12:31:42.300Z,49.59
2018-03-14T12:34:45.473Z,51.28
2018-03-14T12:37:48.617Z,50.73
2018-03-14T12:44:27.581Z,51.40
2018-03-14T12:47:51.230Z,51.43
2018-03-14T12:51:04.707Z,50.84
2018-03-14T12:54:19.943Z,51.25
2018-03-14T12:57:23.166Z,51.03
2018-03-14T13:00:26.315Z,50.04
2018-03-14T13:03:29.511Z,49.75
2018-03-14T13:06:32.704Z,49.04
2018-03-14T13:09:35.836Z,49.44
2018-03-14T13:12:38.998Z,48.53
2018-03-14T13:15:42.214Z,45.95
2018-03-14T13:18:45.375Z,45.37
2018-03-14T13:21:48.655Z,43.56
2018-03-14T13:24:51.771Z,43.99
2018-03-14T13:27:54.999Z,44.02
2018-03-14T13:30:58.156Z,43.08
2018-03-14T13:34:01.380Z,44.02
2018-03-14T13:37:04.546Z,44.24
2018-03-14T13:40:07.695Z,45.89
2018-03-14T13:43:10.858Z,45.72
2018-03-14T13:46:14.060Z,46.39
2018-03-14T13:49:17.176Z,45.86
2018-03-14T13:52:20.329Z,45.41
2018-03-14T13:55:23.517Z,46.65
2018-03-14T13:58:26.707Z,45.97
2018-03-14T14:01:29.908Z,47.23
2018-03-14T14:04:33.086Z,47.13
2018-03-14T14:07:36.293Z,46.98
2018-03-14T14:10:39.481Z,47.06
2018-03-14T14:13:42.698Z,47.29
2018-03-14T14:16:45.842Z,46.87
2018-03-14T14:19:49.007Z,44.19
2018-03-14T14:22:52.134Z,42.24
2018-03-14T14:25:55.349Z,42.23
2018-03-14T14:28:58.591Z,41.56
2018-03-14T14:32:01.755Z,40.40
2018-03-14T14:35:04.882Z,40.54
2018-03-14T14:38:08.233Z,40.72
2018-03-14T14:41:11.472Z,40.53
2018-03-14T14:44:14.646Z,41.54
2018-03-14T14:47:17.867Z,39.89
2018-03-14T14:50:21.039Z,39.23
2018-03-14T14:53:24.229Z,38.12
2018-03-14T14:56:27.430Z,38.24
2018-03-14T14:59:30.607Z,38.49
2018-03-14T15:02:33.832Z,38.08
2018-03-14T15:05:37.036Z,39.06
2018-03-14T15:08:40.235Z,39.36
2018-03-14T15:11:43.493Z,39.16
2018-03-14T15:14:46.820Z,40.22
2018-03-14T15:17:49.973Z,42.09
2018-03-14T15:20:53.216Z,42.11
2018-03-14T15:23:56.362Z,41.76
2018-03-14T15:26:59.582Z,42.08
2018-03-14T15:30:02.746Z,42.24
2018-03-14T15:33:05.987Z,42.89
2018-03-14T15:36:09.203Z,44.52
2018-03-14T15:39:12.326Z,45.78
2018-03-14T15:42:15.450Z,45.91
2018-03-14T15:45:18.654Z,46.10
2018-03-14T15:48:21.856Z,45.54
2018-03-14T15:51:25.055Z,45.59
2018-03-14T15:54:28.218Z,46.44
2018-03-14T15:57:31.350Z,46.84
2018-03-14T16:00:34.530Z,46.96
2018-03-14T16:03:37.711Z,47.01
2018-03-14T16:06:40.860Z,46.91
2018-03-14T16:09:43.994Z,46.98
2018-03-14T16:12:47.213Z,46.21
2018-03-14T16:15:50.390Z,46.84
2018-03-14T16:18:53.584Z,46.98
2018-03-14T16:21:56.718Z,47.75
2018-03-14T16:24:59.880Z,47.50
2018-03-14T16:28:03.087Z,48.09
2018-03-14T16:31:06.458Z,47.97
2018-03-14T16:34:09.674Z,48.31
2018-03-14T16:37:12.880Z,48.12
2018-03-14T16:40:16.066Z,47.76
2018-03-14T16:43:19.272Z,48.01
2018-03-14T16:46:22.441Z,47.81
2018-03-14T16:49:25.662Z,47.71
2018-03-14T16:52:28.834Z,47.68
2018-03-14T16:55:32.048Z,48.96
2018-03-14T16:58:35.214Z,48.77
2018-03-14T17:01:38.391Z,49.41
2018-03-14T17:04:41.655Z,49.54
2018-03-14T17:07:44.907Z,50.45
2018-03-14T17:10:48.108Z,50.66
2018-03-14T17:13:51.364Z,50.73
2018-03-14T17:16:54.598Z,51.28
2018-03-14T17:19:57.868Z,51.31
2018-03-14T17:23:01.002Z,51.37
2018-03-14T17:26:04.244Z,51.95
2018-03-14T17:29:07.571Z,51.51
2018-03-14T17:32:10.824Z,51.68
2018-03-14T17:35:13.968Z,52.05
2018-03-14T17:38:17.241Z,52.65
2018-03-14T17:41:20.485Z,53.15
2018-03-14T17:44:23.762Z,53.44
2018-03-14T17:47:27.243Z,53.82
2018-03-14T17:50:30.750Z,53.38
2018-03-14T17:53:34.031Z,53.31
2018-03-14T17:56:37.274Z,53.85
2018-03-14T17:59:40.609Z,54.46
2018-03-14T18:02:43.870Z,54.76
2018-03-14T18:05:47.178Z,55.03
2018-03-14T18:08:50.564Z,55.31
2018-03-14T18:11:53.849Z,55.74
2018-03-14T18:14:57.062Z,55.70
2018-03-14T18:18:00.362Z,55.37
2018-03-14T18:21:03.794Z,55.43
2018-03-14T18:24:07.044Z,55.88
2018-03-14T18:27:10.331Z,56.49
2018-03-14T18:30:13.773Z,56.05
2018-03-14T18:33:17.058Z,56.70
2018-03-14T18:36:20.326Z,57.00
2018-03-14T18:39:23.628Z,57.41
2018-03-14T18:42:31.285Z,57.98
2018-03-14T18:45:34.442Z,57.44
2018-03-14T18:48:37.621Z,57.76
2018-03-14T18:51:40.750Z,57.56
2018-03-14T18:54:43.929Z,57.95
2018-03-14T18:57:47.103Z,57.96
2018-03-14T19:00:50.293Z,57.38
2018-03-14T19:03:53.489Z,57.45
2018-03-14T19:06:56.788Z,57.78
2018-03-14T19:10:02.767Z,57.68
2018-03-14T19:13:06.959Z,57.80
2018-03-14T19:16:10.181Z,57.49
2018-03-14T19:19:13.346Z,58.13
2018-03-14T19:22:16.541Z,57.70
2018-03-14T19:25:19.748Z,58.89
2018-03-14T19:28:23.330Z,58.69
2018-03-14T19:31:26.490Z,58.17
2018-03-14T19:34:29.656Z,58.83
2018-03-14T19:37:32.802Z,58.85
2018-03-14T19:40:35.928Z,58.69
2018-03-14T19:43:39.319Z,59.34
2018-03-14T19:46:42.521Z,60.06
2018-03-14T19:49:45.715Z,60.33
2018-03-14T19:52:48.942Z,60.59
2018-03-14T19:55:52.105Z,60.24
2018-03-14T19:58:55.314Z,60.42
2018-03-14T20:01:58.422Z,60.60
2018-03-14T20:05:01.590Z,60.76
2018-03-14T20:08:04.819Z,60.82
2018-03-14T20:11:08.006Z,61.18
2018-03-14T20:14:11.173Z,61.02
2018-03-14T20:17:14.367Z,61.51
2018-03-14T20:20:17.581Z,61.97
2018-03-14T20:23:20.769Z,61.88
2018-03-14T20:26:24.139Z,62.37
2018-03-14T20:29:27.251Z,62.33
2018-03-14T20:32:30.426Z,62.22
2018-03-14T20:35:33.643Z,62.31
2018-03-14T20:38:36.850Z,62.61
2018-03-14T20:41:40.030Z,62.60
2018-03-14T20:44:43.241Z,62.65
2018-03-14T20:47:46.451Z,63.48
2018-03-14T20:50:49.648Z,63.57
2018-03-14T20:53:52.813Z,63.50
2018-03-14T20:56:56.017Z,62.79
2018-03-14T20:59:59.165Z,62.96
2018-03-14T21:03:02.297Z,63.04
2018-03-14T21:06:05.497Z,62.83
2018-03-14T21:09:08.714Z,63.23
2018-03-14T21:12:11.838Z,63.30
2018-03-14T21:15:14.962Z,63.60
2018-03-14T21:18:19.086Z,63.49
2018-03-14T21:21:22.309Z,63.65
2018-03-14T21:24:25.650Z,63.40
2018-03-14T21:27:28.782Z,63.53
2018-03-14T21:30:32.016Z,63.76
2018-03-14T21:33:35.340Z,63.89
2018-03-14T21:36:38.602Z,63.90
2018-03-14T21:39:41.805Z,63.73
2018-03-14T21:42:44.990Z,63.95
2018-03-14T21:45:48.463Z,64.38
2018-03-14T21:48:51.612Z,63.98
2018-03-14T21:51:55.709Z,63.33
2018-03-14T21:54:58.909Z,63.97
2018-03-14T21:58:02.078Z,64.26
2018-03-14T22:01:05.309Z,64.38
2018-03-14T22:04:08.467Z,64.70
2018-03-14T22:07:11.706Z,64.45
2018-03-14T22:10:14.882Z,64.41
2018-03-14T22:13:18.039Z,64.18
2018-03-14T22:16:21.306Z,64.82
2018-03-14T22:19:24.758Z,64.39
2018-03-14T22:22:27.948Z,64.93
2018-03-14T22:25:31.139Z,64.43
2018-03-14T22:28:34.323Z,64.85
2018-03-14T22:31:37.520Z,64.80
2018-03-14T22:34:40.728Z,65.14
2018-03-14T22:37:43.922Z,65.32
2018-03-14T22:40:47.097Z,64.86
2018-03-14T22:43:50.328Z,65.36
2018-03-14T22:46:53.874Z,65.59
2018-03-14T22:49:56.976Z,65.74
2018-03-14T22:53:00.228Z,65.82
2018-03-14T22:56:03.394Z,65.92
2018-03-14T22:59:06.573Z,66.05
2018-03-14T23:02:09.786Z,66.64
2018-03-14T23:05:12.918Z,65.82
2018-03-14T23:08:16.070Z,66.00
2018-03-14T23:11:19.418Z,66.20
2018-03-14T23:14:23.531Z,65.98
2018-03-14T23:17:26.694Z,66.68
2018-03-14T23:20:29.890Z,66.40
2018-03-14T23:23:33.076Z,66.38
2018-03-14T23:26:36.220Z,66.42
2018-03-14T23:29:39.351Z,66.71
2018-03-14T23:32:42.581Z,66.52
2018-03-14T23:35:45.768Z,66.58
2018-03-14T23:38:48.952Z,66.87
2018-03-14T23:41:52.165Z,67.24
2018-03-14T23:44:55.362Z,67.15
2018-03-14T23:47:58.557Z,66.94
2018-03-14T23:51:01.700Z,67.11
2018-03-14T23:54:04.836Z,67.35
2018-03-14T23:57:08.042Z,67.34
